createdAt,value
2019-05-13T00:00:40.083Z,22.49
2019-05-13T00:01:40.064Z,22.51
2019-05-13T00:02:40.053Z,22.54
2019-05-13T00:03:40.047Z,22.46
2019-05-13T00:04:40.047Z,22.52
2019-05-13T00:05:40.023Z,22.40
2019-05-13T00:06:51.315Z,22.42
2019-05-13T00:07:43.581Z,22.42
2019-05-13T00:08:39.987Z,22.52
2019-05-13T00:09:39.975Z,22.46
2019-05-13T00:10:39.970Z,22.43
2019-05-13T00:11:39.957Z,22.49
2019-05-13T00:12:39.947Z,22.45
2019-05-13T00:13:39.933Z,22.40
2019-05-13T00:14:39.922Z,22.55
2019-05-13T00:15:39.907Z,22.55
2019-05-13T00:16:39.894Z,22.51
2019-05-13T00:17:39.926Z,22.51
2019-05-13T00:18:40.820Z,22.40
2019-05-13T00:19:39.861Z,22.47
2019-05-13T00:20:39.850Z,22.49
2019-05-13T00:21:39.839Z,22.40
2019-05-13T00:22:39.839Z,22.46
2019-05-13T00:23:39.833Z,22.52
2019-05-13T00:24:39.804Z,22.51
2019-05-13T00:25:39.795Z,22.55
2019-05-13T00:26:39.780Z,22.49
2019-05-13T00:27:50.315Z,22.45
2019-05-13T00:28:39.758Z,22.40
2019-05-13T00:29:39.755Z,22.52
2019-05-13T00:30:39.741Z,22.40
2019-05-13T00:31:39.729Z,22.51
2019-05-13T00:32:39.719Z,22.51
2019-05-13T00:33:39.715Z,22.43
2019-05-13T00:34:39.697Z,22.54
2019-05-13T00:35:39.684Z,22.52
2019-05-13T00:36:39.670Z,22.49
2019-05-13T00:37:39.655Z,22.47
2019-05-13T00:38:39.647Z,22.51
2019-05-13T00:39:39.656Z,22.47
2019-05-13T00:40:39.624Z,22.49
2019-05-13T00:41:39.615Z,22.45
2019-05-13T00:42:39.607Z,22.49
2019-05-13T00:43:39.590Z,22.43
2019-05-13T00:44:39.578Z,22.47
2019-05-13T00:45:39.572Z,22.51
2019-05-13T00:46:39.556Z,22.49
2019-05-13T00:47:39.542Z,22.45
2019-05-13T00:48:39.537Z,22.47
2019-05-13T00:49:39.524Z,22.49
2019-05-13T00:50:39.558Z,22.51
2019-05-13T00:51:39.501Z,22.47
2019-05-13T00:52:39.493Z,22.43
2019-05-13T00:53:39.483Z,22.46
2019-05-13T00:54:39.473Z,22.47
2019-05-13T00:55:39.456Z,22.43
2019-05-13T00:56:39.516Z,22.46
2019-05-13T00:57:39.430Z,22.46
2019-05-13T00:58:49.953Z,22.49
2019-05-13T00:59:39.417Z,22.52
2019-05-13T01:00:39.407Z,22.46
2019-05-13T01:01:39.433Z,22.46
2019-05-13T01:02:39.383Z,22.43
2019-05-13T01:03:39.373Z,22.46
2019-05-13T01:04:39.357Z,22.45
2019-05-13T01:05:39.348Z,22.43
2019-05-13T01:06:39.339Z,22.52
2019-05-13T01:07:39.359Z,22.51
2019-05-13T01:08:39.312Z,22.40
2019-05-13T01:09:39.300Z,22.51
2019-05-13T01:10:39.313Z,22.46
2019-05-13T01:11:39.284Z,22.51
2019-05-13T01:12:39.270Z,22.43
2019-05-13T01:13:39.260Z,22.42
2019-05-13T01:14:39.246Z,22.47
2019-05-13T01:15:39.235Z,22.43
2019-05-13T01:16:39.224Z,22.45
2019-05-13T01:17:39.253Z,22.47
2019-05-13T01:18:39.199Z,22.47
2019-05-13T01:19:39.185Z,22.45
2019-05-13T01:20:39.174Z,22.45
2019-05-13T01:21:39.167Z,22.35
2019-05-13T01:22:39.154Z,22.47
2019-05-13T01:23:39.161Z,22.36
2019-05-13T01:24:39.136Z,22.46
2019-05-13T01:25:39.123Z,22.39
2019-05-13T01:26:39.108Z,22.57
2019-05-13T01:27:39.095Z,22.49
2019-05-13T01:28:39.082Z,22.46
2019-05-13T01:29:53.420Z,22.49
2019-05-13T01:30:39.065Z,22.47
2019-05-13T01:31:39.055Z,22.52
2019-05-13T01:32:39.040Z,22.43
2019-05-13T01:33:39.034Z,22.54
2019-05-13T01:34:39.026Z,22.52
2019-05-13T01:35:39.017Z,22.45
2019-05-13T01:36:38.995Z,22.42
2019-05-13T01:37:42.495Z,22.54
2019-05-13T01:38:38.970Z,22.46
2019-05-13T01:39:38.970Z,22.51
2019-05-13T01:40:38.951Z,22.42
2019-05-13T01:41:38.941Z,22.52
2019-05-13T01:42:38.929Z,22.52
2019-05-13T01:43:38.952Z,22.51
2019-05-13T01:44:38.905Z,22.49
2019-05-13T01:45:38.898Z,22.46
2019-05-13T01:46:38.886Z,22.47
2019-05-13T01:47:38.885Z,22.47
2019-05-13T01:48:38.857Z,22.55
2019-05-13T01:49:38.890Z,22.49
2019-05-13T01:50:38.839Z,22.46
2019-05-13T01:51:38.824Z,22.47
2019-05-13T01:52:38.811Z,22.43
2019-05-13T01:53:38.810Z,22.49
2019-05-13T01:54:38.794Z,22.40
2019-05-13T01:55:38.786Z,22.55
2019-05-13T01:56:38.765Z,22.51
2019-05-13T01:57:38.762Z,22.45
2019-05-13T01:58:38.746Z,22.46
2019-05-13T01:59:38.737Z,22.46
2019-05-13T02:00:51.743Z,22.51
2019-05-13T02:01:38.708Z,22.46
2019-05-13T02:02:38.702Z,22.51
2019-05-13T02:03:38.692Z,22.47
2019-05-13T02:04:38.677Z,22.49
2019-05-13T02:05:38.703Z,22.40
2019-05-13T02:06:38.660Z,22.49
2019-05-13T02:07:38.655Z,22.54
2019-05-13T02:08:38.639Z,22.42
2019-05-13T02:09:38.617Z,22.47
2019-05-13T02:10:38.606Z,22.52
2019-05-13T02:11:38.609Z,22.54
2019-05-13T02:12:38.585Z,22.45
2019-05-13T02:13:38.574Z,22.46
2019-05-13T02:14:38.563Z,22.37
2019-05-13T02:15:38.567Z,22.51
2019-05-13T02:16:38.582Z,22.49
2019-05-13T02:17:38.533Z,22.55
2019-05-13T02:18:38.523Z,22.45
2019-05-13T02:19:38.515Z,22.45
2019-05-13T02:20:38.507Z,22.40
2019-05-13T02:21:38.486Z,22.45
2019-05-13T02:22:38.482Z,22.49
2019-05-13T02:23:38.462Z,22.47
2019-05-13T02:24:38.452Z,22.45
2019-05-13T02:25:38.441Z,22.45
2019-05-13T02:26:38.429Z,22.39
2019-05-13T02:27:38.426Z,22.45
2019-05-13T02:28:38.414Z,22.40
2019-05-13T02:29:38.397Z,22.47
2019-05-13T02:30:38.391Z,22.46
2019-05-13T02:31:55.242Z,22.47
2019-05-13T02:32:42.526Z,22.46
2019-05-13T02:33:38.371Z,22.45
2019-05-13T02:34:38.349Z,22.39
2019-05-13T02:35:38.348Z,22.55
2019-05-13T02:36:38.319Z,22.52
2019-05-13T02:37:38.307Z,22.54
2019-05-13T02:38:38.297Z,22.49
2019-05-13T02:39:38.293Z,22.49
2019-05-13T02:40:38.271Z,22.51
2019-05-13T02:41:38.265Z,22.47
2019-05-13T02:42:38.248Z,22.47
2019-05-13T02:43:41.219Z,22.49
2019-05-13T02:44:39.243Z,22.51
2019-05-13T02:45:38.216Z,22.45
2019-05-13T02:46:38.210Z,22.51
2019-05-13T02:47:38.192Z,22.49
2019-05-13T02:48:38.186Z,22.40
2019-05-13T02:49:38.175Z,22.52
2019-05-13T02:50:38.170Z,22.47
2019-05-13T02:51:38.151Z,22.49
2019-05-13T02:52:38.136Z,22.46
2019-05-13T02:53:38.130Z,22.42
2019-05-13T02:54:38.115Z,22.37
2019-05-13T02:55:38.111Z,22.46
2019-05-13T02:56:38.099Z,22.43
2019-05-13T02:57:38.087Z,22.51
2019-05-13T02:58:38.075Z,22.49
2019-05-13T02:59:38.057Z,22.47
2019-05-13T03:00:38.052Z,22.37
2019-05-13T03:01:38.074Z,22.40
2019-05-13T03:02:48.646Z,22.49
2019-05-13T03:03:38.019Z,22.43
2019-05-13T03:04:38.012Z,22.42
2019-05-13T03:05:37.990Z,22.43
2019-05-13T03:06:37.984Z,22.47
2019-05-13T03:07:38.010Z,22.55
2019-05-13T03:08:46.320Z,22.51
2019-05-13T03:09:42.025Z,22.40
2019-05-13T03:10:37.936Z,22.55
2019-05-13T03:11:37.922Z,22.47
2019-05-13T03:12:37.916Z,22.45
2019-05-13T03:13:37.937Z,22.49
2019-05-13T03:14:37.891Z,22.52
2019-05-13T03:15:37.877Z,22.52
2019-05-13T03:16:37.876Z,22.42
2019-05-13T03:17:37.863Z,22.57
2019-05-13T03:18:37.848Z,22.49
2019-05-13T03:19:37.843Z,22.52
2019-05-13T03:20:37.824Z,22.55
2019-05-13T03:21:37.816Z,22.45
2019-05-13T03:22:37.805Z,22.52
2019-05-13T03:23:37.832Z,22.57
2019-05-13T03:24:37.783Z,22.51
2019-05-13T03:25:37.769Z,22.49
2019-05-13T03:26:37.759Z,22.49
2019-05-13T03:27:37.745Z,22.51
2019-05-13T03:28:37.735Z,22.49
2019-05-13T03:29:37.735Z,22.51
2019-05-13T03:30:37.723Z,22.46
2019-05-13T03:31:37.702Z,22.43
2019-05-13T03:32:44.472Z,22.49
2019-05-13T03:33:55.525Z,22.42
2019-05-13T03:34:40.226Z,22.49
2019-05-13T03:35:44.634Z,22.40
2019-05-13T03:36:38.650Z,22.46
2019-05-13T03:37:37.636Z,22.43
2019-05-13T03:38:58.322Z,22.40
2019-05-13T03:39:38.653Z,22.52
2019-05-13T03:40:37.604Z,22.49
2019-05-13T03:41:37.595Z,22.45
2019-05-13T03:42:37.576Z,22.49
2019-05-13T03:43:37.566Z,22.51
2019-05-13T03:44:37.563Z,22.45
2019-05-13T03:45:37.551Z,22.47
2019-05-13T03:46:37.540Z,22.52
2019-05-13T03:47:37.519Z,22.47
2019-05-13T03:48:37.509Z,22.45
2019-05-13T03:49:37.500Z,22.54
2019-05-13T03:50:37.505Z,22.49
2019-05-13T03:51:37.482Z,22.49
2019-05-13T03:52:37.472Z,22.49
2019-05-13T03:53:37.460Z,22.47
2019-05-13T03:54:37.443Z,22.45
2019-05-13T03:55:37.444Z,22.45
2019-05-13T03:56:37.433Z,22.51
2019-05-13T03:57:37.420Z,22.43
2019-05-13T03:58:37.400Z,22.49
2019-05-13T03:59:37.388Z,22.49
2019-05-13T04:00:37.375Z,22.52
2019-05-13T04:01:37.373Z,22.40
2019-05-13T04:02:37.352Z,22.45
2019-05-13T04:03:37.372Z,22.49
2019-05-13T04:04:47.629Z,22.46
2019-05-13T04:05:37.322Z,22.46
2019-05-13T04:06:37.352Z,22.42
2019-05-13T04:07:37.299Z,22.45
2019-05-13T04:08:37.291Z,22.42
2019-05-13T04:09:37.275Z,22.35
2019-05-13T04:10:37.267Z,22.31
2019-05-13T04:11:37.250Z,22.31
2019-05-13T04:12:37.250Z,22.31
2019-05-13T04:13:37.229Z,22.30
2019-05-13T04:14:37.220Z,22.36
2019-05-13T04:15:37.214Z,22.33
2019-05-13T04:16:37.200Z,22.31
2019-05-13T04:17:37.223Z,22.28
2019-05-13T04:18:37.173Z,22.36
2019-05-13T04:19:37.161Z,22.31
2019-05-13T04:20:37.156Z,22.31
2019-05-13T04:21:37.141Z,22.39
2019-05-13T04:22:37.126Z,22.40
2019-05-13T04:23:37.152Z,22.39
2019-05-13T04:24:37.110Z,22.31
2019-05-13T04:25:39.791Z,22.39
2019-05-13T04:26:38.081Z,22.37
2019-05-13T04:27:37.078Z,22.35
2019-05-13T04:28:37.070Z,22.39
2019-05-13T04:29:37.088Z,22.35
2019-05-13T04:30:37.038Z,22.39
2019-05-13T04:31:37.037Z,22.45
2019-05-13T04:32:37.047Z,22.36
2019-05-13T04:33:37.007Z,22.37
2019-05-13T04:34:36.995Z,22.39
2019-05-13T04:35:49.188Z,22.39
2019-05-13T04:36:36.975Z,22.35
2019-05-13T04:37:36.965Z,22.35
2019-05-13T04:38:36.952Z,22.31
2019-05-13T04:39:47.735Z,22.25
2019-05-13T04:40:37.927Z,22.31
2019-05-13T04:41:36.921Z,22.31
2019-05-13T04:42:36.901Z,22.30
2019-05-13T04:43:36.891Z,22.28
2019-05-13T04:44:36.881Z,22.27
2019-05-13T04:45:36.938Z,22.31
2019-05-13T04:46:36.865Z,22.28
2019-05-13T04:47:36.854Z,22.35
2019-05-13T04:48:39.406Z,22.31
2019-05-13T04:49:37.824Z,22.33
2019-05-13T04:50:36.815Z,22.31
2019-05-13T04:51:36.809Z,22.36
2019-05-13T04:52:36.794Z,22.31
2019-05-13T04:53:36.790Z,22.25
2019-05-13T04:54:36.771Z,22.21
2019-05-13T04:55:36.762Z,22.36
2019-05-13T04:56:36.786Z,22.31
2019-05-13T04:57:36.745Z,22.28
2019-05-13T04:58:36.732Z,22.36
2019-05-13T04:59:40.387Z,22.15
2019-05-13T05:00:37.705Z,22.35
2019-05-13T05:01:40.120Z,22.28
2019-05-13T05:02:44.701Z,22.28
2019-05-13T05:03:44.808Z,22.28
2019-05-13T05:04:37.658Z,22.25
2019-05-13T05:05:36.649Z,22.33
2019-05-13T05:06:47.741Z,22.31
2019-05-13T05:07:36.622Z,22.33
2019-05-13T05:08:36.632Z,22.33
2019-05-13T05:09:40.382Z,22.30
2019-05-13T05:10:38.889Z,22.31
2019-05-13T05:11:36.578Z,22.30
2019-05-13T05:12:36.572Z,22.28
2019-05-13T05:13:36.562Z,22.28
2019-05-13T05:14:36.578Z,22.36
2019-05-13T05:15:36.539Z,22.31
2019-05-13T05:16:36.528Z,22.28
2019-05-13T05:17:36.515Z,22.27
2019-05-13T05:18:36.505Z,22.31
2019-05-13T05:19:36.488Z,22.31
2019-05-13T05:20:36.482Z,22.30
2019-05-13T05:21:36.474Z,22.40
2019-05-13T05:22:36.451Z,22.33
2019-05-13T05:23:36.444Z,22.25
2019-05-13T05:24:36.435Z,22.31
2019-05-13T05:25:36.459Z,22.33
2019-05-13T05:26:36.409Z,22.37
2019-05-13T05:27:36.400Z,22.39
2019-05-13T05:28:36.390Z,22.36
2019-05-13T05:29:36.378Z,22.35
2019-05-13T05:30:36.364Z,22.39
2019-05-13T05:31:36.390Z,22.31
2019-05-13T05:32:36.348Z,22.35
2019-05-13T05:33:36.331Z,22.35
2019-05-13T05:34:36.319Z,22.33
2019-05-13T05:35:36.313Z,22.39
2019-05-13T05:36:36.294Z,22.37
2019-05-13T05:37:47.269Z,22.35
2019-05-13T05:38:36.275Z,22.31
2019-05-13T05:39:36.267Z,22.30
2019-05-13T05:40:36.252Z,22.35
2019-05-13T05:41:36.239Z,22.31
2019-05-13T05:42:36.229Z,22.36
2019-05-13T05:43:36.262Z,22.35
2019-05-13T05:44:36.205Z,22.33
2019-05-13T05:45:36.199Z,22.37
2019-05-13T05:46:36.190Z,22.43
2019-05-13T05:47:36.175Z,22.37
2019-05-13T05:48:36.163Z,22.40
2019-05-13T05:49:36.162Z,22.39
2019-05-13T05:50:36.138Z,22.43
2019-05-13T05:51:36.129Z,22.43
2019-05-13T05:52:36.114Z,22.47
2019-05-13T05:53:36.116Z,22.43
2019-05-13T05:54:36.106Z,22.43
2019-05-13T05:55:36.085Z,22.47
2019-05-13T05:56:36.073Z,22.43
2019-05-13T05:57:36.067Z,22.46
2019-05-13T05:58:36.045Z,22.37
2019-05-13T05:59:36.071Z,22.43
2019-05-13T06:00:36.022Z,22.47
2019-05-13T06:01:37.450Z,22.43
2019-05-13T06:02:36.001Z,22.42
2019-05-13T06:03:35.993Z,22.57
2019-05-13T06:04:35.984Z,22.52
2019-05-13T06:05:36.011Z,22.47
2019-05-13T06:06:35.956Z,22.55
2019-05-13T06:07:35.944Z,22.52
2019-05-13T06:08:48.102Z,22.52
2019-05-13T06:09:35.925Z,22.47
2019-05-13T06:10:46.320Z,22.52
2019-05-13T06:11:36.919Z,22.55
2019-05-13T06:12:35.888Z,22.57
2019-05-13T06:13:35.877Z,22.54
2019-05-13T06:14:35.868Z,22.55
2019-05-13T06:15:35.860Z,22.61
2019-05-13T06:16:35.874Z,22.62
2019-05-13T06:17:35.855Z,22.57
2019-05-13T06:18:35.826Z,22.62
2019-05-13T06:19:35.811Z,22.62
2019-05-13T06:20:35.796Z,22.61
2019-05-13T06:21:35.786Z,22.61
2019-05-13T06:22:35.776Z,22.65
2019-05-13T06:23:35.773Z,22.60
2019-05-13T06:24:35.754Z,22.61
2019-05-13T06:25:35.740Z,22.61
2019-05-13T06:26:35.739Z,22.67
2019-05-13T06:27:35.729Z,22.61
2019-05-13T06:28:35.709Z,22.62
2019-05-13T06:29:35.709Z,22.64
2019-05-13T06:30:35.683Z,22.68
2019-05-13T06:31:35.673Z,22.72
2019-05-13T06:32:35.709Z,22.67
2019-05-13T06:33:35.656Z,22.72
2019-05-13T06:34:35.644Z,22.68
2019-05-13T06:35:35.634Z,22.72
2019-05-13T06:36:35.620Z,22.72
2019-05-13T06:37:35.615Z,22.68
2019-05-13T06:38:35.634Z,22.72
2019-05-13T06:39:45.637Z,22.70
2019-05-13T06:40:35.576Z,22.70
2019-05-13T06:41:35.564Z,22.75
2019-05-13T06:42:35.553Z,22.73
2019-05-13T06:43:35.541Z,22.77
2019-05-13T06:44:35.566Z,22.77
2019-05-13T06:45:35.517Z,22.68
2019-05-13T06:46:35.506Z,22.75
2019-05-13T06:47:36.276Z,22.76
2019-05-13T06:48:35.485Z,22.83
2019-05-13T06:49:35.473Z,22.82
2019-05-13T06:50:35.488Z,22.79
2019-05-13T06:51:35.452Z,22.83
2019-05-13T06:52:35.468Z,22.88
2019-05-13T06:53:35.426Z,22.80
2019-05-13T06:54:35.425Z,22.86
2019-05-13T06:55:35.404Z,22.90
2019-05-13T06:56:35.408Z,22.90
2019-05-13T06:57:35.381Z,22.88
2019-05-13T06:58:35.369Z,22.85
2019-05-13T06:59:35.359Z,22.91
2019-05-13T07:00:35.361Z,22.88
2019-05-13T07:01:35.338Z,22.88
2019-05-13T07:02:35.323Z,22.90
2019-05-13T07:03:35.314Z,22.88
2019-05-13T07:04:35.323Z,22.92
2019-05-13T07:05:35.289Z,22.91
2019-05-13T07:06:35.279Z,22.88
2019-05-13T07:07:35.269Z,22.86
2019-05-13T07:08:35.258Z,22.85
2019-05-13T07:09:35.253Z,22.90
2019-05-13T07:10:47.906Z,22.86
2019-05-13T07:11:35.269Z,22.85
2019-05-13T07:12:35.217Z,22.88
2019-05-13T07:13:35.202Z,22.91
2019-05-13T07:14:35.190Z,22.88
2019-05-13T07:15:35.179Z,22.90
2019-05-13T07:16:35.184Z,22.91
2019-05-13T07:17:35.162Z,22.98
2019-05-13T07:18:35.146Z,22.92
2019-05-13T07:19:35.140Z,23.00
2019-05-13T07:20:35.192Z,22.94
2019-05-13T07:21:35.158Z,22.95
2019-05-13T07:22:35.102Z,22.97
2019-05-13T07:23:35.095Z,22.92
2019-05-13T07:24:35.085Z,22.91
2019-05-13T07:25:35.068Z,22.97
2019-05-13T07:26:35.065Z,23.00
2019-05-13T07:27:35.059Z,23.00
2019-05-13T07:28:35.050Z,23.02
2019-05-13T07:29:35.024Z,23.00
2019-05-13T07:30:35.018Z,23.02
2019-05-13T07:31:35.009Z,23.00
2019-05-13T07:32:35.001Z,23.07
2019-05-13T07:33:35.047Z,23.12
2019-05-13T07:34:34.968Z,23.10
2019-05-13T07:35:37.890Z,23.05
2019-05-13T07:36:34.953Z,23.10
2019-05-13T07:37:34.941Z,23.07
2019-05-13T07:38:34.931Z,23.16
2019-05-13T07:39:34.922Z,23.13
2019-05-13T07:40:34.907Z,23.17
2019-05-13T07:41:45.186Z,23.17
2019-05-13T07:42:34.881Z,23.17
2019-05-13T07:43:34.883Z,23.17
2019-05-13T07:44:34.864Z,23.17
2019-05-13T07:45:34.997Z,23.04
2019-05-13T07:46:34.835Z,23.17
2019-05-13T07:47:34.824Z,23.16
2019-05-13T07:48:34.815Z,23.17
2019-05-13T07:49:34.825Z,23.20
2019-05-13T07:50:34.795Z,23.09
2019-05-13T07:51:34.782Z,23.15
2019-05-13T07:52:34.785Z,23.16
2019-05-13T07:53:34.755Z,23.16
2019-05-13T07:54:34.750Z,23.05
2019-05-13T07:55:34.747Z,23.07
2019-05-13T07:56:34.728Z,23.05
2019-05-13T07:57:34.820Z,23.16
2019-05-13T07:58:37.654Z,23.25
2019-05-13T07:59:34.701Z,23.07
2019-05-13T08:00:34.677Z,23.07
2019-05-13T08:01:34.672Z,23.16
2019-05-13T08:02:34.660Z,23.15
2019-05-13T08:03:34.645Z,23.13
2019-05-13T08:04:34.644Z,23.13
2019-05-13T08:05:34.627Z,23.19
2019-05-13T08:06:34.621Z,23.09
2019-05-13T08:07:34.606Z,23.20
2019-05-13T08:08:34.595Z,23.23
2019-05-13T08:09:34.631Z,23.22
2019-05-13T08:10:34.573Z,23.23
2019-05-13T08:11:54.561Z,23.16
2019-05-13T08:12:45.964Z,23.22
2019-05-13T08:13:34.536Z,23.16
2019-05-13T08:14:34.601Z,23.16
2019-05-13T08:15:34.548Z,23.23
2019-05-13T08:16:34.504Z,23.17
2019-05-13T08:17:34.489Z,23.17
2019-05-13T08:18:34.475Z,23.17
2019-05-13T08:19:34.468Z,23.19
2019-05-13T08:20:34.461Z,23.22
2019-05-13T08:21:34.483Z,23.16
2019-05-13T08:22:34.430Z,23.20
2019-05-13T08:23:34.417Z,23.20
2019-05-13T08:24:34.409Z,23.07
2019-05-13T08:25:34.398Z,23.22
2019-05-13T08:26:38.184Z,23.25
2019-05-13T08:27:35.385Z,23.16
2019-05-13T08:28:34.363Z,23.20
2019-05-13T08:29:34.350Z,23.17
2019-05-13T08:30:34.339Z,23.23
2019-05-13T08:31:34.332Z,23.25
2019-05-13T08:32:34.359Z,23.23
2019-05-13T08:33:34.307Z,23.19
2019-05-13T08:34:34.296Z,23.25
2019-05-13T08:35:34.289Z,23.28
2019-05-13T08:36:34.276Z,23.22
2019-05-13T08:37:34.265Z,23.23
2019-05-13T08:38:34.262Z,23.19
2019-05-13T08:39:38.376Z,23.19
2019-05-13T08:40:34.228Z,23.25
2019-05-13T08:41:34.220Z,23.22
2019-05-13T08:42:34.209Z,23.25
2019-05-13T08:43:46.524Z,23.25
2019-05-13T08:44:34.187Z,23.20
2019-05-13T08:45:34.172Z,23.17
2019-05-13T08:46:34.160Z,23.23
2019-05-13T08:47:34.151Z,23.23
2019-05-13T08:48:34.144Z,23.16
2019-05-13T08:49:34.209Z,23.22
2019-05-13T08:50:34.120Z,23.20
2019-05-13T08:51:34.893Z,23.25
2019-05-13T08:52:34.092Z,23.16
2019-05-13T08:53:34.084Z,23.19
2019-05-13T08:54:34.147Z,23.22
2019-05-13T08:55:34.059Z,23.20
2019-05-13T08:56:34.049Z,23.20
2019-05-13T08:57:34.077Z,23.19
2019-05-13T08:58:34.034Z,23.20
2019-05-13T08:59:34.018Z,23.23
2019-05-13T09:00:34.017Z,23.22
2019-05-13T09:01:34.001Z,23.23
2019-05-13T09:02:33.988Z,23.25
2019-05-13T09:03:33.974Z,23.23
2019-05-13T09:04:33.960Z,23.19
2019-05-13T09:05:33.961Z,23.16
2019-05-13T09:06:33.942Z,23.23
2019-05-13T09:07:33.928Z,23.20
2019-05-13T09:08:33.931Z,23.20
2019-05-13T09:09:33.912Z,23.20
2019-05-13T09:10:33.899Z,23.23
2019-05-13T09:11:33.895Z,23.20
2019-05-13T09:12:37.076Z,23.25
2019-05-13T09:13:34.861Z,23.23
2019-05-13T09:14:44.519Z,23.19
2019-05-13T09:15:33.842Z,23.22
2019-05-13T09:16:33.903Z,23.20
2019-05-13T09:17:33.822Z,23.22
2019-05-13T09:18:33.814Z,23.25
2019-05-13T09:19:33.797Z,23.22
2019-05-13T09:20:33.785Z,23.20
2019-05-13T09:21:33.773Z,23.19
2019-05-13T09:22:33.774Z,23.22
2019-05-13T09:23:33.793Z,23.25
2019-05-13T09:24:37.528Z,23.19
2019-05-13T09:25:33.731Z,23.20
2019-05-13T09:26:33.723Z,23.28
2019-05-13T09:27:33.721Z,23.32
2019-05-13T09:28:33.705Z,23.25
2019-05-13T09:29:33.733Z,23.32
2019-05-13T09:30:33.682Z,23.33
2019-05-13T09:31:33.670Z,23.28
2019-05-13T09:32:33.651Z,23.32
2019-05-13T09:33:33.647Z,23.35
2019-05-13T09:34:33.634Z,23.28
2019-05-13T09:35:33.669Z,23.38
2019-05-13T09:36:33.608Z,23.31
2019-05-13T09:37:33.596Z,23.35
2019-05-13T09:38:33.584Z,23.36
2019-05-13T09:39:33.575Z,23.31
2019-05-13T09:40:33.571Z,23.35
2019-05-13T09:41:40.579Z,23.32
2019-05-13T09:42:48.139Z,23.32
2019-05-13T09:43:34.537Z,23.43
2019-05-13T09:44:33.525Z,23.35
2019-05-13T09:45:44.142Z,23.32
2019-05-13T09:46:33.518Z,23.36
2019-05-13T09:47:33.493Z,23.36
2019-05-13T09:48:33.481Z,23.32
2019-05-13T09:49:33.467Z,23.35
2019-05-13T09:50:36.191Z,23.38
2019-05-13T09:51:33.445Z,23.32
2019-05-13T09:52:33.468Z,23.33
2019-05-13T09:53:33.422Z,23.32
2019-05-13T09:54:33.433Z,23.42
2019-05-13T09:55:33.402Z,23.36
2019-05-13T09:56:33.405Z,23.39
2019-05-13T09:57:33.376Z,23.36
2019-05-13T09:58:33.398Z,23.36
2019-05-13T09:59:33.360Z,23.39
2019-05-13T10:00:33.343Z,23.39
2019-05-13T10:01:33.335Z,23.40
2019-05-13T10:02:33.329Z,23.38
2019-05-13T10:03:33.453Z,23.46
2019-05-13T10:04:33.316Z,23.36
2019-05-13T10:05:33.293Z,23.43
2019-05-13T10:06:33.281Z,23.46
2019-05-13T10:07:33.271Z,23.46
2019-05-13T10:08:33.275Z,23.42
2019-05-13T10:09:33.251Z,23.43
2019-05-13T10:10:33.241Z,23.39
2019-05-13T10:11:33.223Z,23.39
2019-05-13T10:12:33.220Z,23.50
2019-05-13T10:13:33.202Z,23.43
2019-05-13T10:14:33.380Z,23.47
2019-05-13T10:15:33.195Z,23.46
2019-05-13T10:16:43.118Z,23.43
2019-05-13T10:17:33.158Z,23.48
2019-05-13T10:18:33.199Z,23.47
2019-05-13T10:19:33.135Z,23.50
2019-05-13T10:20:33.129Z,23.54
2019-05-13T10:21:33.134Z,23.43
2019-05-13T10:22:33.102Z,23.47
2019-05-13T10:23:33.530Z,23.39
2019-05-13T10:24:33.082Z,23.46
2019-05-13T10:25:33.075Z,23.43
2019-05-13T10:26:33.067Z,23.43
2019-05-13T10:27:33.068Z,23.46
2019-05-13T10:28:33.047Z,23.47
2019-05-13T10:29:33.029Z,23.46
2019-05-13T10:30:33.014Z,23.39
2019-05-13T10:31:33.005Z,23.43
2019-05-13T10:32:33.002Z,23.47
2019-05-13T10:33:33.026Z,23.48
2019-05-13T10:34:32.971Z,23.43
2019-05-13T10:35:32.957Z,23.47
2019-05-13T10:36:32.946Z,23.42
2019-05-13T10:37:32.942Z,23.47
2019-05-13T10:38:32.977Z,23.47
2019-05-13T10:39:32.921Z,23.50
2019-05-13T10:40:32.902Z,23.42
2019-05-13T10:41:33.403Z,23.47
2019-05-13T10:42:32.921Z,23.47
2019-05-13T10:43:32.871Z,23.50
2019-05-13T10:44:32.862Z,23.48
2019-05-13T10:45:33.358Z,23.43
2019-05-13T10:46:32.836Z,23.48
2019-05-13T10:47:43.707Z,23.36
2019-05-13T10:48:32.818Z,23.40
2019-05-13T10:49:33.362Z,23.39
2019-05-13T10:50:32.792Z,23.42
2019-05-13T10:51:32.831Z,23.38
2019-05-13T10:52:32.769Z,23.39
2019-05-13T10:53:32.783Z,23.40
2019-05-13T10:54:32.946Z,23.39
2019-05-13T10:55:32.737Z,23.36
2019-05-13T10:56:33.180Z,23.36
2019-05-13T10:57:32.715Z,23.35
2019-05-13T10:58:32.703Z,23.36
2019-05-13T10:59:32.713Z,23.35
2019-05-13T11:00:32.684Z,23.32
2019-05-13T11:01:32.904Z,23.31
2019-05-13T11:02:32.928Z,23.32
2019-05-13T11:03:33.126Z,23.27
2019-05-13T11:04:32.984Z,23.33
2019-05-13T11:05:32.882Z,23.32
2019-05-13T11:06:32.681Z,23.32
2019-05-13T11:07:32.603Z,23.36
2019-05-13T11:08:33.407Z,23.28
2019-05-13T11:09:32.796Z,23.31
2019-05-13T11:10:32.770Z,23.27
2019-05-13T11:11:33.229Z,23.28
2019-05-13T11:12:33.522Z,23.27
2019-05-13T11:13:50.446Z,23.25
2019-05-13T11:14:33.526Z,23.28
2019-05-13T11:15:40.389Z,23.31
2019-05-13T11:16:33.524Z,23.25
2019-05-13T11:17:33.248Z,23.25
2019-05-13T11:18:42.728Z,23.20
2019-05-13T11:19:36.084Z,23.31
2019-05-13T11:20:32.556Z,23.28
2019-05-13T11:21:32.451Z,23.22
2019-05-13T11:22:32.784Z,23.22
2019-05-13T11:23:32.584Z,23.25
2019-05-13T11:24:32.696Z,23.23
2019-05-13T11:25:32.509Z,23.20
2019-05-13T11:26:36.149Z,23.19
2019-05-13T11:27:32.548Z,23.16
2019-05-13T11:28:32.417Z,23.16
2019-05-13T11:29:32.726Z,23.23
2019-05-13T11:30:32.348Z,23.22
2019-05-13T11:31:33.011Z,23.16
2019-05-13T11:32:32.360Z,23.13
2019-05-13T11:33:32.342Z,23.17
2019-05-13T11:34:33.138Z,23.15
2019-05-13T11:35:32.299Z,23.13
2019-05-13T11:36:33.317Z,23.13
2019-05-13T11:37:32.270Z,23.13
2019-05-13T11:38:32.892Z,23.07
2019-05-13T11:39:32.686Z,23.07
2019-05-13T11:40:32.237Z,23.16
2019-05-13T11:41:32.747Z,23.19
2019-05-13T11:42:32.881Z,23.16
2019-05-13T11:43:33.149Z,23.15
2019-05-13T11:44:32.510Z,23.13
2019-05-13T11:45:32.185Z,23.10
2019-05-13T11:46:33.221Z,23.19
2019-05-13T11:47:32.348Z,23.12
2019-05-13T11:48:32.658Z,23.16
2019-05-13T11:49:44.316Z,23.20
2019-05-13T11:50:32.138Z,23.22
2019-05-13T11:51:32.442Z,23.12
2019-05-13T11:52:32.105Z,23.17
2019-05-13T11:53:34.417Z,23.17
2019-05-13T11:54:33.085Z,23.07
2019-05-13T11:55:32.083Z,23.07
2019-05-13T11:56:33.750Z,23.07
2019-05-13T11:57:32.055Z,23.09
2019-05-13T11:58:32.546Z,23.10
2019-05-13T11:59:32.936Z,23.01
2019-05-13T12:00:32.016Z,23.13
2019-05-13T12:01:33.383Z,23.05
2019-05-13T12:02:32.667Z,23.15
2019-05-13T12:03:32.554Z,23.09
2019-05-13T12:04:34.410Z,23.12
2019-05-13T12:05:32.668Z,23.05
2019-05-13T12:06:33.924Z,23.09
2019-05-13T12:07:32.928Z,23.07
2019-05-13T12:08:33.893Z,23.12
2019-05-13T12:09:32.111Z,23.13
2019-05-13T12:10:32.618Z,23.09
2019-05-13T12:11:33.361Z,23.12
2019-05-13T12:12:34.620Z,23.07
2019-05-13T12:13:32.865Z,23.07
2019-05-13T12:14:56.916Z,23.10
2019-05-13T12:15:45.642Z,23.10
2019-05-13T12:16:35.048Z,23.10
2019-05-13T12:17:33.984Z,23.04
2019-05-13T12:18:31.835Z,23.04
2019-05-13T12:19:31.803Z,23.12
2019-05-13T12:20:42.885Z,22.98
2019-05-13T12:21:31.782Z,23.01
2019-05-13T12:22:31.815Z,23.01
2019-05-13T12:23:31.762Z,23.05
2019-05-13T12:24:31.756Z,23.00
2019-05-13T12:25:33.503Z,22.95
2019-05-13T12:26:33.289Z,22.98
2019-05-13T12:27:32.127Z,22.94
2019-05-13T12:28:31.743Z,22.95
2019-05-13T12:29:31.698Z,22.97
2019-05-13T12:30:33.843Z,22.91
2019-05-13T12:31:33.672Z,22.97
2019-05-13T12:32:32.369Z,22.95
2019-05-13T12:33:32.680Z,22.92
2019-05-13T12:34:40.242Z,22.95
2019-05-13T12:35:32.939Z,22.92
2019-05-13T12:36:32.994Z,22.92
2019-05-13T12:37:33.430Z,22.92
2019-05-13T12:38:33.103Z,22.90
2019-05-13T12:39:32.134Z,22.92
2019-05-13T12:40:33.775Z,22.92
2019-05-13T12:41:32.962Z,22.92
2019-05-13T12:42:33.816Z,22.92
2019-05-13T12:43:32.028Z,22.91
2019-05-13T12:44:31.653Z,22.91
2019-05-13T12:45:31.535Z,22.91
2019-05-13T12:46:31.507Z,22.98
2019-05-13T12:47:31.501Z,23.01
2019-05-13T12:48:31.506Z,22.98
2019-05-13T12:49:35.638Z,22.94
2019-05-13T12:50:33.028Z,22.98
2019-05-13T12:51:43.973Z,22.94
2019-05-13T12:52:32.585Z,23.01